createdAt,value
2019-05-17T00:02:22.867Z,26.97
2019-05-17T00:04:50.453Z,24.13
2019-05-17T00:07:18.395Z,26.33
2019-05-17T00:09:47.835Z,28.43
2019-05-17T00:12:16.633Z,26.93
2019-05-17T00:14:47.132Z,26.10
2019-05-17T00:17:17.173Z,26.43
2019-05-17T00:19:46.495Z,27.17
2019-05-17T00:22:16.523Z,26.20
2019-05-17T00:24:43.762Z,26.43
2019-05-17T00:27:11.405Z,25.73
2019-05-17T00:29:39.048Z,26.93
2019-05-17T00:32:06.730Z,25.63
2019-05-17T00:34:34.437Z,26.53
2019-05-17T00:37:02.854Z,26.63
2019-05-17T00:39:31.161Z,26.73
2019-05-17T00:41:58.879Z,26.37
2019-05-17T00:44:27.166Z,26.80
2019-05-17T00:46:58.803Z,26.93
2019-05-17T00:49:26.463Z,25.90
2019-05-17T00:51:56.935Z,27.03
2019-05-17T00:54:26.920Z,27.13
2019-05-17T00:56:56.724Z,27.33
2019-05-17T00:59:26.203Z,27.30
2019-05-17T01:01:56.110Z,34.30
2019-05-17T01:04:23.653Z,28.03
2019-05-17T01:06:51.489Z,27.40
2019-05-17T01:09:19.075Z,26.57
2019-05-17T01:11:47.540Z,23.67
2019-05-17T01:14:17.602Z,26.70
2019-05-17T01:16:47.487Z,25.93
2019-05-17T01:19:16.379Z,27.03
2019-05-17T01:21:44.638Z,26.30
2019-05-17T01:24:12.817Z,25.90
2019-05-17T01:26:40.408Z,27.40
2019-05-17T01:29:07.954Z,29.70
2019-05-17T01:31:37.327Z,26.70
2019-05-17T01:34:07.127Z,26.17
2019-05-17T01:36:36.882Z,26.73
2019-05-17T01:39:16.984Z,25.27
2019-05-17T01:41:37.115Z,25.37
2019-05-17T01:44:04.279Z,25.50
2019-05-17T01:46:32.282Z,25.67
2019-05-17T01:49:00.311Z,26.97
2019-05-17T01:51:28.350Z,26.63
2019-05-17T01:53:57.331Z,26.60
2019-05-17T01:56:26.274Z,25.77
2019-05-17T01:58:54.715Z,27.10
2019-05-17T02:01:22.589Z,27.60
2019-05-17T02:03:50.532Z,26.40
2019-05-17T02:06:18.031Z,28.37
2019-05-17T02:08:47.511Z,28.47
2019-05-17T02:11:18.205Z,28.63
2019-05-17T02:13:46.720Z,28.07
2019-05-17T02:16:16.509Z,28.07
2019-05-17T02:18:44.006Z,25.87
2019-05-17T02:21:11.710Z,27.33
2019-05-17T02:23:39.372Z,29.73
2019-05-17T02:26:07.278Z,32.23
2019-05-17T02:28:35.145Z,31.57
2019-05-17T02:31:03.637Z,30.93
2019-05-17T02:33:33.501Z,27.80
2019-05-17T02:36:02.982Z,27.53
2019-05-17T02:38:33.316Z,27.33
2019-05-17T02:41:03.324Z,27.57
2019-05-17T02:43:33.435Z,27.97
2019-05-17T02:46:03.618Z,28.97
2019-05-17T02:48:33.389Z,28.10
2019-05-17T02:51:03.147Z,27.53
2019-05-17T02:53:29.412Z,28.70
2019-05-17T02:55:57.403Z,27.07
2019-05-17T02:58:25.572Z,31.33
2019-05-17T03:00:53.589Z,28.47
2019-05-17T03:03:23.722Z,30.83
2019-05-17T03:05:53.590Z,32.47
2019-05-17T03:08:23.465Z,30.90
2019-05-17T03:10:53.417Z,30.00
2019-05-17T03:13:23.172Z,32.60
2019-05-17T03:15:52.829Z,32.70
2019-05-17T03:18:22.610Z,29.93
2019-05-17T03:20:52.271Z,29.83
2019-05-17T03:23:18.471Z,30.70
2019-05-17T03:25:46.573Z,28.43
2019-05-17T03:28:14.303Z,28.33
2019-05-17T03:30:46.956Z,28.73
2019-05-17T03:33:16.011Z,29.83
2019-05-17T03:35:45.893Z,28.97
2019-05-17T03:38:14.093Z,29.93
2019-05-17T03:41:09.499Z,29.37
2019-05-17T03:43:13.790Z,29.33
2019-05-17T03:45:42.681Z,28.53
2019-05-17T03:48:12.979Z,29.70
2019-05-17T03:50:43.606Z,30.57
2019-05-17T03:53:13.157Z,28.93
2019-05-17T03:55:42.811Z,27.47
2019-05-17T03:58:12.506Z,28.03
2019-05-17T04:00:42.797Z,28.70
2019-05-17T04:03:13.222Z,28.77
2019-05-17T04:05:42.641Z,28.03
2019-05-17T04:08:08.829Z,28.80
2019-05-17T04:10:36.937Z,28.50
2019-05-17T04:13:04.762Z,27.93
2019-05-17T04:15:33.008Z,29.10
2019-05-17T04:18:04.239Z,29.10
2019-05-17T04:20:33.278Z,27.57
2019-05-17T04:23:04.017Z,27.73
2019-05-17T04:25:33.531Z,28.60
2019-05-17T04:28:02.820Z,27.67
2019-05-17T04:30:32.642Z,28.50
2019-05-17T04:33:03.037Z,26.90
2019-05-17T04:35:32.466Z,27.90
2019-05-17T04:38:03.678Z,28.80
2019-05-17T04:40:29.808Z,26.37
2019-05-17T04:42:57.539Z,28.10
2019-05-17T04:45:25.197Z,26.30
2019-05-17T04:47:53.613Z,26.57
2019-05-17T04:50:23.077Z,26.40
2019-05-17T04:52:53.573Z,25.47
2019-05-17T04:55:23.080Z,28.10
2019-05-17T04:57:53.087Z,28.20
2019-05-17T05:00:21.924Z,27.00
2019-05-17T05:02:52.544Z,26.07
2019-05-17T05:05:22.468Z,26.10
2019-05-17T05:07:49.630Z,26.90
2019-05-17T05:10:17.347Z,25.83
2019-05-17T05:12:45.030Z,25.20
2019-05-17T05:15:12.847Z,26.47
2019-05-17T05:17:42.561Z,25.43
2019-05-17T05:20:13.194Z,28.50
2019-05-17T05:22:42.618Z,24.93
2019-05-17T05:25:12.346Z,26.77
2019-05-17T05:27:42.612Z,28.07
2019-05-17T05:30:12.095Z,29.20
2019-05-17T05:32:42.601Z,28.73
2019-05-17T05:35:12.416Z,26.47
2019-05-17T05:37:42.388Z,25.80
2019-05-17T05:40:12.662Z,23.30
2019-05-17T05:42:42.584Z,22.87
2019-05-17T05:45:12.117Z,23.27
2019-05-17T05:47:41.577Z,22.87
2019-05-17T05:50:21.849Z,22.67
2019-05-17T05:52:49.412Z,25.23
2019-05-17T05:55:17.322Z,21.60
2019-05-17T05:57:45.218Z,21.93
2019-05-17T06:00:14.626Z,23.13
2019-05-17T06:02:42.423Z,22.07
2019-05-17T06:05:14.916Z,22.57
2019-05-17T06:07:41.788Z,22.57
2019-05-17T06:10:12.975Z,22.40
2019-05-17T06:12:43.507Z,21.67
2019-05-17T06:15:12.606Z,22.10
2019-05-17T06:17:42.678Z,21.83
2019-05-17T06:20:11.810Z,21.97
2019-05-17T06:22:42.489Z,22.10
2019-05-17T06:25:14.616Z,22.73
2019-05-17T06:27:41.535Z,22.67
2019-05-17T06:30:12.309Z,22.33
2019-05-17T06:32:42.712Z,22.23
2019-05-17T06:35:12.321Z,22.10
2019-05-17T06:37:39.204Z,22.43
2019-05-17T06:40:07.062Z,23.17
2019-05-17T06:42:41.000Z,22.20
2019-05-17T06:45:04.927Z,23.67
2019-05-17T06:47:32.967Z,23.90
2019-05-17T06:50:03.130Z,23.73
2019-05-17T06:52:32.497Z,23.83
2019-05-17T06:55:03.486Z,23.27
2019-05-17T06:57:32.395Z,24.57
2019-05-17T07:00:02.424Z,23.37
2019-05-17T07:02:31.461Z,25.03
2019-05-17T07:05:02.358Z,24.67
2019-05-17T07:07:31.450Z,26.47
2019-05-17T07:10:00.514Z,26.23
2019-05-17T07:12:30.729Z,26.87
2019-05-17T07:14:58.606Z,25.97
2019-05-17T07:17:30.266Z,25.77
2019-05-17T07:19:59.728Z,26.03
2019-05-17T07:22:29.481Z,23.60
2019-05-17T07:24:59.546Z,22.80
2019-05-17T07:27:38.701Z,22.13
2019-05-17T07:29:56.519Z,22.83
2019-05-17T07:32:24.454Z,22.53
2019-05-17T07:34:52.098Z,24.03
2019-05-17T07:37:20.167Z,21.37
2019-05-17T07:40:00.930Z,22.40
2019-05-17T07:42:19.430Z,21.27
2019-05-17T07:44:46.979Z,17.07
2019-05-17T07:47:14.623Z,17.87
2019-05-17T07:49:42.945Z,17.03
2019-05-17T07:52:10.669Z,16.93
2019-05-17T07:54:39.945Z,18.43
2019-05-17T07:57:10.161Z,17.00
2019-05-17T07:59:39.686Z,15.50
2019-05-17T08:02:07.212Z,13.30
2019-05-17T08:04:34.754Z,12.58
2019-05-17T08:07:03.009Z,11.00
2019-05-17T08:09:31.117Z,10.20
2019-05-17T08:11:59.771Z,8.78
2019-05-17T08:14:32.903Z,8.55
2019-05-17T08:16:59.800Z,9.45
2019-05-17T08:19:29.754Z,10.18
2019-05-17T08:21:56.508Z,11.63
2019-05-17T08:24:24.028Z,11.63
2019-05-17T08:26:51.618Z,10.50
2019-05-17T08:29:20.331Z,9.70
2019-05-17T08:31:49.690Z,10.15
2019-05-17T08:34:19.658Z,9.15
2019-05-17T08:36:46.841Z,8.48
2019-05-17T08:39:14.941Z,8.38
2019-05-17T08:41:42.717Z,8.48
2019-05-17T08:44:10.420Z,7.80
2019-05-17T08:46:39.867Z,7.92
2019-05-17T08:49:09.700Z,8.73
2019-05-17T08:51:39.607Z,8.08
2019-05-17T08:54:07.411Z,8.65
2019-05-17T08:56:35.305Z,8.90
2019-05-17T08:59:03.007Z,9.00
2019-05-17T09:01:30.820Z,8.58
2019-05-17T09:03:59.900Z,9.08
2019-05-17T09:06:29.328Z,9.10
2019-05-17T09:08:57.066Z,9.18
2019-05-17T09:11:24.625Z,8.15
2019-05-17T09:13:57.966Z,7.60
2019-05-17T09:16:21.745Z,6.47
2019-05-17T09:18:50.195Z,6.33
2019-05-17T09:21:21.697Z,5.95
2019-05-17T09:23:50.352Z,6.30
2019-05-17T09:26:19.941Z,7.20
2019-05-17T09:28:49.822Z,7.70
2019-05-17T09:31:17.333Z,8.20
2019-05-17T09:33:45.612Z,7.77
2019-05-17T09:36:13.464Z,8.78
2019-05-17T09:38:41.050Z,8.20
2019-05-17T09:41:09.428Z,8.10
2019-05-17T09:43:40.300Z,8.43
2019-05-17T09:46:10.520Z,8.28
2019-05-17T09:48:39.632Z,7.17
2019-05-17T09:51:07.407Z,7.17
2019-05-17T09:53:35.393Z,7.63
2019-05-17T09:56:02.915Z,8.10
2019-05-17T09:58:30.452Z,7.60
2019-05-17T10:01:01.063Z,7.65
2019-05-17T10:03:27.957Z,7.95
2019-05-17T10:05:55.532Z,7.95
2019-05-17T10:08:23.553Z,7.95
2019-05-17T10:11:04.992Z,7.30
2019-05-17T10:13:21.148Z,7.30
2019-05-17T10:15:50.163Z,7.10
2019-05-17T10:18:20.037Z,7.78
2019-05-17T10:20:47.615Z,7.95
2019-05-17T10:23:16.344Z,7.58
2019-05-17T10:25:44.839Z,7.40
2019-05-17T10:28:13.018Z,7.33
2019-05-17T10:30:40.692Z,6.15
2019-05-17T10:33:09.818Z,6.05
2019-05-17T10:35:40.380Z,5.60
2019-05-17T10:38:07.140Z,5.70
2019-05-17T10:40:35.207Z,6.25
2019-05-17T10:43:02.779Z,6.87
2019-05-17T10:45:30.596Z,6.12
2019-05-17T10:48:00.643Z,6.28
2019-05-17T10:50:29.800Z,5.50
2019-05-17T10:53:00.225Z,5.20
2019-05-17T10:55:27.472Z,5.30
2019-05-17T10:57:55.147Z,5.33
2019-05-17T11:00:24.572Z,4.83
2019-05-17T11:02:52.445Z,5.37
2019-05-17T11:05:20.325Z,5.03
2019-05-17T11:07:49.805Z,4.67
2019-05-17T11:10:19.441Z,5.90
2019-05-17T11:12:46.934Z,4.47
2019-05-17T11:15:15.218Z,4.30
2019-05-17T11:17:43.236Z,4.20
2019-05-17T11:20:11.370Z,4.60
2019-05-17T11:22:38.970Z,4.67
2019-05-17T11:25:06.750Z,4.58
2019-05-17T11:27:34.384Z,4.87
2019-05-17T11:30:02.148Z,4.75
2019-05-17T11:32:31.011Z,4.60
2019-05-17T11:34:58.808Z,4.25
2019-05-17T11:37:27.253Z,4.42
2019-05-17T11:39:55.498Z,4.50
2019-05-17T11:42:23.217Z,3.50
2019-05-17T11:44:51.230Z,3.50
2019-05-17T11:47:20.869Z,3.47
2019-05-17T11:49:48.644Z,3.60
2019-05-17T11:52:18.809Z,3.40
2019-05-17T11:54:46.603Z,3.30
2019-05-17T11:57:15.110Z,3.22
2019-05-17T11:59:43.165Z,3.17
2019-05-17T12:02:12.583Z,3.75
2019-05-17T12:04:40.816Z,4.08
2019-05-17T12:07:08.401Z,3.20
2019-05-17T12:09:37.693Z,3.70
2019-05-17T12:12:06.534Z,3.30
2019-05-17T12:14:34.585Z,2.77
2019-05-17T12:17:02.708Z,2.98
2019-05-17T12:19:31.355Z,2.70
2019-05-17T12:21:59.350Z,2.53
2019-05-17T12:24:27.161Z,2.33
2019-05-17T12:26:55.607Z,2.53
2019-05-17T12:29:23.942Z,2.70
2019-05-17T12:31:52.057Z,2.80
2019-05-17T12:34:19.866Z,2.80
2019-05-17T12:36:47.626Z,3.23
2019-05-17T12:39:16.454Z,3.30
2019-05-17T12:41:44.805Z,3.50
2019-05-17T12:44:13.465Z,3.20
2019-05-17T12:46:41.293Z,3.40
2019-05-17T12:49:09.085Z,2.90
2019-05-17T12:51:36.990Z,3.10
2019-05-17T12:54:05.309Z,3.43
2019-05-17T12:56:34.401Z,2.97
2019-05-17T12:59:02.707Z,3.23
2019-05-17T13:01:30.510Z,4.20
2019-05-17T13:03:58.442Z,3.20
2019-05-17T13:06:26.707Z,3.50
2019-05-17T13:08:57.351Z,4.30
2019-05-17T13:11:26.584Z,3.53
2019-05-17T13:13:54.816Z,3.80
2019-05-17T13:16:22.606Z,4.30
2019-05-17T13:18:54.137Z,3.90
2019-05-17T13:21:22.265Z,3.90
2019-05-17T13:23:50.151Z,3.70
2019-05-17T13:26:18.577Z,3.70
2019-05-17T13:28:46.615Z,3.80
2019-05-17T13:31:16.626Z,4.10
2019-05-17T13:33:44.807Z,4.53
2019-05-17T13:36:12.955Z,4.50
2019-05-17T13:38:41.485Z,5.30
2019-05-17T13:41:11.376Z,5.13
2019-05-17T13:43:39.887Z,4.37
2019-05-17T13:46:07.679Z,4.23
2019-05-17T13:48:35.817Z,4.87
2019-05-17T13:51:04.142Z,4.17
2019-05-17T13:53:31.915Z,4.33
2019-05-17T13:55:59.581Z,3.63
2019-05-17T13:58:27.642Z,4.13
2019-05-17T14:00:55.899Z,4.00
2019-05-17T14:03:23.751Z,4.23
2019-05-17T14:05:51.700Z,3.93
2019-05-17T14:08:19.515Z,3.93
2019-05-17T14:10:48.071Z,3.83
2019-05-17T14:13:16.081Z,3.73
2019-05-17T14:15:44.833Z,3.73
2019-05-17T14:18:12.752Z,3.40
2019-05-17T14:20:41.299Z,3.70
2019-05-17T14:23:09.304Z,3.60
2019-05-17T14:25:37.557Z,3.80
2019-05-17T14:28:05.835Z,3.53
2019-05-17T14:30:35.661Z,3.20
2019-05-17T14:33:06.617Z,3.00
2019-05-17T14:35:34.723Z,3.03
2019-05-17T14:38:03.408Z,3.10
2019-05-17T14:41:04.052Z,3.30
2019-05-17T14:43:00.739Z,2.87
2019-05-17T14:45:29.039Z,3.20
2019-05-17T14:47:57.696Z,3.20
2019-05-17T14:50:25.796Z,2.60
2019-05-17T14:52:54.289Z,3.70
2019-05-17T14:55:24.163Z,3.00
2019-05-17T14:57:51.784Z,2.47
2019-05-17T15:00:20.191Z,2.63
2019-05-17T15:02:48.683Z,3.20
2019-05-17T15:05:17.562Z,2.90
2019-05-17T15:07:45.708Z,3.10
2019-05-17T15:10:14.066Z,2.90
2019-05-17T15:12:41.847Z,3.10
2019-05-17T15:15:10.075Z,3.83
2019-05-17T15:17:39.407Z,2.80
2019-05-17T15:20:07.612Z,2.83
2019-05-17T15:22:36.202Z,2.90
2019-05-17T15:25:04.256Z,3.40
2019-05-17T15:27:33.098Z,2.70
2019-05-17T15:30:01.041Z,2.73
2019-05-17T15:32:29.075Z,2.93
2019-05-17T15:34:56.887Z,2.90
2019-05-17T15:37:24.872Z,3.27
2019-05-17T15:39:53.220Z,2.90
2019-05-17T15:42:21.148Z,3.00
2019-05-17T15:44:49.126Z,2.80
2019-05-17T15:47:22.677Z,2.40
2019-05-17T15:49:52.493Z,2.40
2019-05-17T15:52:20.490Z,2.50
2019-05-17T15:54:49.005Z,2.37
2019-05-17T15:57:18.586Z,2.27
2019-05-17T15:59:47.028Z,2.20
2019-05-17T16:02:15.407Z,2.40
2019-05-17T16:04:43.600Z,1.93
2019-05-17T16:07:11.791Z,2.10
2019-05-17T16:09:39.979Z,2.33
2019-05-17T16:12:07.817Z,2.30
2019-05-17T16:14:36.071Z,3.10
2019-05-17T16:17:03.910Z,3.63
2019-05-17T16:19:33.308Z,2.10
2019-05-17T16:22:01.317Z,2.30
2019-05-17T16:24:29.984Z,2.10
2019-05-17T16:26:58.855Z,2.30
2019-05-17T16:29:27.320Z,2.40
2019-05-17T16:31:55.509Z,2.70
2019-05-17T16:34:23.572Z,2.20
2019-05-17T16:36:51.612Z,2.93
2019-05-17T16:39:20.105Z,2.20
2019-05-17T16:41:48.616Z,2.30
2019-05-17T16:44:18.007Z,2.40
2019-05-17T16:46:46.263Z,2.40
2019-05-17T16:49:14.423Z,2.23
2019-05-17T16:51:42.263Z,2.40
2019-05-17T16:54:13.440Z,2.57
2019-05-17T16:56:41.279Z,2.30
2019-05-17T16:59:09.460Z,2.80
2019-05-17T17:01:37.378Z,2.98
2019-05-17T17:04:05.233Z,2.70
2019-05-17T17:06:33.993Z,2.57
2019-05-17T17:09:01.720Z,2.80
2019-05-17T17:11:31.998Z,3.07
2019-05-17T17:13:59.604Z,2.73
2019-05-17T17:16:27.664Z,2.80
2019-05-17T17:18:56.024Z,2.40
2019-05-17T17:21:23.987Z,2.50
2019-05-17T17:23:52.375Z,2.83
2019-05-17T17:26:20.150Z,2.67
2019-05-17T17:28:48.046Z,3.05
2019-05-17T17:31:16.475Z,3.20
2019-05-17T17:33:44.846Z,3.30
2019-05-17T17:36:12.720Z,3.33
2019-05-17T17:38:40.637Z,3.77
2019-05-17T17:41:08.525Z,3.30
2019-05-17T17:43:36.485Z,3.33
2019-05-17T17:46:04.499Z,3.40
2019-05-17T17:48:32.350Z,2.90
2019-05-17T17:51:01.640Z,2.87
2019-05-17T17:53:30.660Z,3.17
2019-05-17T17:55:58.974Z,2.97
2019-05-17T17:58:27.072Z,3.23
2019-05-17T18:00:55.223Z,3.13
2019-05-17T18:03:23.032Z,3.00
2019-05-17T18:05:51.028Z,3.80
2019-05-17T18:08:19.381Z,3.00
2019-05-17T18:10:47.205Z,3.10
2019-05-17T18:13:15.346Z,3.30
2019-05-17T18:15:44.601Z,3.10
2019-05-17T18:18:12.869Z,3.10
2019-05-17T18:20:40.452Z,3.00
2019-05-17T18:23:08.800Z,2.90
2019-05-17T18:25:37.264Z,2.73
2019-05-17T18:28:06.332Z,3.30
2019-05-17T18:30:34.352Z,3.37
2019-05-17T18:33:02.309Z,2.93
2019-05-17T18:35:30.884Z,2.70
2019-05-17T18:37:58.617Z,3.20
2019-05-17T18:40:26.935Z,3.13
2019-05-17T18:42:55.401Z,3.07
2019-05-17T18:45:23.993Z,3.20
2019-05-17T18:47:51.990Z,3.20
2019-05-17T18:50:21.602Z,3.07
2019-05-17T18:52:49.640Z,3.60
2019-05-17T18:55:17.609Z,3.10
2019-05-17T18:57:45.940Z,3.23
2019-05-17T19:00:15.087Z,3.23
2019-05-17T19:02:43.340Z,3.70
2019-05-17T19:05:12.434Z,3.93
2019-05-17T19:07:40.595Z,5.40
2019-05-17T19:10:10.348Z,5.20
2019-05-17T19:12:38.161Z,4.67
2019-05-17T19:15:06.658Z,4.10
2019-05-17T19:17:34.873Z,4.13
2019-05-17T19:20:03.419Z,4.10
2019-05-17T19:22:31.197Z,4.50
2019-05-17T19:24:59.385Z,4.47
2019-05-17T19:27:27.167Z,4.20
2019-05-17T19:29:54.971Z,4.10
2019-05-17T19:32:22.883Z,3.97
2019-05-17T19:34:51.916Z,4.00
2019-05-17T19:37:19.736Z,4.10
2019-05-17T19:39:47.525Z,4.60
2019-05-17T19:42:16.017Z,5.40
2019-05-17T19:44:58.019Z,6.30
2019-05-17T19:47:14.761Z,4.37
2019-05-17T19:49:42.833Z,4.30
2019-05-17T19:52:11.102Z,4.87
2019-05-17T19:54:39.034Z,5.07
2019-05-17T19:57:07.324Z,4.40
2019-05-17T19:59:36.098Z,6.00
2019-05-17T20:02:06.514Z,7.30
2019-05-17T20:04:33.601Z,5.60
2019-05-17T20:07:03.900Z,4.50
2019-05-17T20:09:32.078Z,5.43
2019-05-17T20:12:00.198Z,4.80
2019-05-17T20:14:28.559Z,4.43
2019-05-17T20:16:56.710Z,4.30
2019-05-17T20:19:24.539Z,4.90
2019-05-17T20:21:54.444Z,5.23
2019-05-17T20:24:22.763Z,4.77
2019-05-17T20:26:51.020Z,4.87
2019-05-17T20:29:21.929Z,5.30
2019-05-17T20:31:50.249Z,4.90
2019-05-17T20:34:17.952Z,4.83
2019-05-17T20:36:46.601Z,5.80
2019-05-17T20:39:14.641Z,5.10
2019-05-17T20:41:42.486Z,5.73
2019-05-17T20:44:11.075Z,9.17
2019-05-17T20:46:38.743Z,7.80
2019-05-17T20:49:06.567Z,5.50
2019-05-17T20:51:34.766Z,5.57
2019-05-17T20:54:03.006Z,5.60
2019-05-17T20:56:33.312Z,6.40
2019-05-17T20:59:01.332Z,6.30
2019-05-17T21:01:30.004Z,5.90
2019-05-17T21:03:57.979Z,7.37
2019-05-17T21:06:26.256Z,7.13
2019-05-17T21:08:53.813Z,6.23
2019-05-17T21:11:21.950Z,6.60
2019-05-17T21:13:49.902Z,6.43
2019-05-17T21:16:18.132Z,6.57
2019-05-17T21:18:46.531Z,5.97
2019-05-17T21:21:14.715Z,6.47
2019-05-17T21:23:42.641Z,7.47
2019-05-17T21:26:10.690Z,8.57
2019-05-17T21:28:38.846Z,7.63
2019-05-17T21:31:08.118Z,7.93
2019-05-17T21:33:36.145Z,7.37
2019-05-17T21:36:04.997Z,6.63
2019-05-17T21:38:33.736Z,6.67
2019-05-17T21:41:01.689Z,7.03
2019-05-17T21:43:29.786Z,8.23
2019-05-17T21:46:04.157Z,8.03
2019-05-17T21:48:31.412Z,7.40
2019-05-17T21:50:59.356Z,7.90
2019-05-17T21:53:27.263Z,7.30
2019-05-17T21:55:55.280Z,7.67
2019-05-17T21:58:23.465Z,7.00
2019-05-17T22:01:08.958Z,7.17
2019-05-17T22:03:36.680Z,7.80
2019-05-17T22:06:04.564Z,7.97
2019-05-17T22:08:32.285Z,7.67
2019-05-17T22:10:59.913Z,8.00
2019-05-17T22:13:28.058Z,7.20
2019-05-17T22:15:55.849Z,7.30
2019-05-17T22:18:23.922Z,7.60
2019-05-17T22:20:51.753Z,7.57
2019-05-17T22:23:19.419Z,7.27
2019-05-17T22:25:47.891Z,7.33
2019-05-17T22:28:16.117Z,7.53
2019-05-17T22:30:43.720Z,7.43
2019-05-17T22:33:12.018Z,6.97
2019-05-17T22:35:39.633Z,7.17
2019-05-17T22:38:07.751Z,7.27
2019-05-17T22:40:37.298Z,7.70
2019-05-17T22:43:07.989Z,8.03
2019-05-17T22:45:35.672Z,7.70
2019-05-17T22:48:03.732Z,8.80
2019-05-17T22:50:31.477Z,7.90
2019-05-17T22:52:59.395Z,7.80
2019-05-17T22:55:27.743Z,7.67
2019-05-17T22:57:55.352Z,7.93
2019-05-17T23:00:23.317Z,8.10
2019-05-17T23:02:51.066Z,7.67
2019-05-17T23:05:25.662Z,8.03
2019-05-17T23:07:48.352Z,7.87
2019-05-17T23:10:16.051Z,7.60
2019-05-17T23:12:44.053Z,8.10
2019-05-17T23:15:12.023Z,8.00
2019-05-17T23:17:39.725Z,8.67
2019-05-17T23:20:07.539Z,8.07
2019-05-17T23:22:35.175Z,8.40
2019-05-17T23:25:03.051Z,8.30
2019-05-17T23:27:30.751Z,7.77
2019-05-17T23:29:58.765Z,7.83
2019-05-17T23:32:26.383Z,7.77
2019-05-17T23:34:54.367Z,8.63
2019-05-17T23:37:22.235Z,7.97
2019-05-17T23:39:50.252Z,8.00
2019-05-17T23:42:18.188Z,8.53
2019-05-17T23:44:45.936Z,9.80
2019-05-17T23:47:14.031Z,9.97
2019-05-17T23:49:42.268Z,8.68
2019-05-17T23:52:10.382Z,8.10
2019-05-17T23:54:38.545Z,8.35
2019-05-17T23:57:06.443Z,8.28
2019-05-17T23:59:34.540Z,8.18
